Current Weather Conditions: station PRTA2

sailwx.info

Wind from 140 at 5 knots gusting 6

Air temperature 0.6° C
Dewpoint 0.2° C

Last reported at 2020-Jan-22 13:10 UTC.
Time now 2020-Jan-22 14:49 UTC

Location: N 58°25' W 134°57'.
View on Google Maps.

See reports from other nearby stations

  
Tides and Currents Weather Stations Pressure Air Temp Water Temp Dewpoint Dewpoint Depression Visibility Wind Speed Wind Dir Waves Ship Positions
date/time (UTC)wind fromknots sea level pressurealtimeterstation pressurevisibilityair tempwater tempwave heightnotes
2020-Jan-22 13:10 140 5 gusting 6 0.6
2020-Jan-22 12:10 140 5 gusting 8 0.8
2020-Jan-22 11:10 140 4 gusting 8 1.5
2020-Jan-22 10:10 160 2 gusting 7 0.9
2020-Jan-22 09:10 130 5 gusting 11 1.4
2020-Jan-22 08:10 140 4 gusting 6 1.0
2020-Jan-22 07:10 140 6 gusting 12 1.0
2020-Jan-22 06:10 150 6 gusting 11 0.7
2020-Jan-22 05:10 120 1 gusting 6 1.4
2020-Jan-22 04:10 070 2 gusting 4 1.3
2020-Jan-22 03:10 020 4 gusting 5 1.0
2020-Jan-22 02:10 010 6 gusting 6 0.9
2020-Jan-22 01:10 020 7 gusting 9 1.4
2020-Jan-22 00:10 020 6 gusting 9 1.8
2020-Jan-21 23:10 360 4 gusting 6 2.0
2020-Jan-21 22:10 040 5 gusting 6 2.4
2020-Jan-21 21:10 330 5 gusting 9 2.1
2020-Jan-21 20:10 330 6 gusting 13 2.2
2020-Jan-21 19:10 330 4 gusting 7 2.1
2020-Jan-21 18:10 350 11 gusting 17 2.0
2020-Jan-21 17:10 010 15 gusting 20 1.9
2020-Jan-21 16:10 010 15 gusting 20 1.6
2020-Jan-21 15:10 360 13 gusting 19 1.5
2020-Jan-21 14:10 350 12 gusting 19 1.6
2020-Jan-21 13:10 360 9 gusting 13 1.9
2020-Jan-21 12:10 350 6 gusting 11 1.7
2020-Jan-21 11:10 010 6 gusting 8 1.6
2020-Jan-21 10:10 100 2 gusting 6 1.5
2020-Jan-21 09:10 120 0 gusting 4 1.1
2020-Jan-21 08:10 150 7 gusting 13 1.4
2020-Jan-21 07:10 140 7 gusting 12 1.7
2020-Jan-21 06:10 140 6 gusting 8 1.3
2020-Jan-21 05:10 140 6 gusting 13 1.5
2020-Jan-21 04:10 150 6 gusting 15 1.4
2020-Jan-21 03:10 140 6 gusting 9 0.9
2020-Jan-21 02:10 150 8 gusting 22 1.4
2020-Jan-21 01:10 150 5 gusting 13 0.8
2020-Jan-21 00:10 170 4 gusting 13 0.3
2020-Jan-20 23:10 150 7 gusting 15 0.3
2020-Jan-20 22:10 130 7 gusting 13 0.1
2020-Jan-20 21:10 140 5 gusting 7 -0.4
2020-Jan-20 20:10 130 5 gusting 13 -0.1
2020-Jan-20 19:10 080 5 gusting 6 -0.1
2020-Jan-20 18:10 020 4 gusting 6 -0.4
2020-Jan-20 17:10 340 4 gusting 7 -0.6
2020-Jan-20 16:10 360 6 gusting 8 -0.7
2020-Jan-20 15:10 010 6 gusting 9 -0.6
2020-Jan-20 14:10 020 9 gusting 13 -0.5